Time;durP1;ratioP1;P1;durP2;ratioP2;P2;SDS_P1;SDS_P2;PMS_P1;PMS_P2;Temp;Humidity;BMP_temperature;BMP_pressure;BME280_temperature;BME280_humidity;BME280_pressure;Samples;Min_cycle;Max_cycle;Signal;HPM_P1;HPM_P2
2022/01/21 00:00:00;;;;;;;372.63;90.20;;;;;;;0.86;68.60;99584.84;339854;29;925;-65
2022/01/21 00:00:12;;;;;;;373.70;90.72;;;;;;;0.87;68.03;99581.38;338189;29;2167;-65
2022/01/21 00:00:22;;;;;;;376.52;90.47;;;;;;;0.85;67.94;99583.13;341072;28;1280;-65
2022/01/21 00:00:33;;;;;;;374.77;89.77;;;;;;;0.84;68.52;99582.28;343629;28;1943;-65
2022/01/21 00:00:43;;;;;;;373.10;90.45;;;;;;;0.81;68.72;99586.56;343880;28;824;-65
2022/01/21 00:00:54;;;;;;;370.67;92.53;;;;;;;0.82;68.86;99583.13;339484;29;2055;-65
2022/01/21 00:01:04;;;;;;;372.97;93.63;;;;;;;0.81;68.60;99577.13;339645;29;1757;-65
2022/01/21 00:01:15;;;;;;;379.27;94.25;;;;;;;0.81;68.22;99584.84;337244;29;931;-65
2022/01/21 00:01:25;;;;;;;384.08;94.90;;;;;;;0.78;69.15;99587.44;340860;29;1804;-65
2022/01/21 00:01:37;;;;;;;384.42;95.25;;;;;;;0.71;68.88;99585.72;342379;28;1752;-65
2022/01/21 00:01:48;;;;;;;381.42;95.72;;;;;;;0.69;68.58;99582.28;341826;28;1746;-65
2022/01/21 00:01:58;;;;;;;381.05;95.97;;;;;;;0.67;69.54;99586.59;339114;29;1814;-65
2022/01/21 00:02:08;;;;;;;379.00;95.00;;;;;;;0.68;69.21;99587.44;338905;29;2063;-65
2022/01/21 00:02:19;;;;;;;379.20;94.93;;;;;;;0.71;68.88;99588.31;338581;29;1347;-66
2022/01/21 00:02:29;;;;;;;378.23;94.13;;;;;;;0.72;69.27;99586.59;339881;29;892;-66
2022/01/21 00:02:40;;;;;;;381.70;95.57;;;;;;;0.69;69.48;99587.44;339560;29;1988;-67
2022/01/21 00:02:50;;;;;;;384.53;94.73;;;;;;;0.66;68.65;99585.72;339764;29;916;-66
2022/01/21 00:03:00;;;;;;;387.05;95.75;;;;;;;0.62;69.50;99586.59;339763;29;1321;-66
2022/01/21 00:03:11;;;;;;;384.60;95.73;;;;;;;0.62;69.48;99585.75;304297;28;1880;-66
2022/01/21 00:03:21;;;;;;;384.55;97.00;;;;;;;0.61;68.89;99586.59;333608;28;10756;-66
2022/01/21 00:03:32;;;;;;;383.97;97.97;;;;;;;0.60;69.34;99588.31;342152;28;1804;-66
2022/01/21 00:03:43;;;;;;;386.23;97.97;;;;;;;0.62;69.02;99583.16;342253;28;1905;-66
2022/01/21 00:03:53;;;;;;;384.88;98.15;;;;;;;0.64;69.23;99582.28;340017;28;1443;-66
2022/01/21 00:04:05;;;;;;;380.88;96.90;;;;;;;0.66;69.44;99582.28;341147;28;1511;-66
2022/01/21 00:04:15;;;;;;;378.92;96.55;;;;;;;0.65;69.63;99583.16;342559;28;1379;-66
2022/01/21 00:04:26;;;;;;;378.85;96.15;;;;;;;0.64;69.30;99584.00;342265;28;953;-66
2022/01/21 00:04:36;;;;;;;380.70;95.60;;;;;;;0.57;69.19;99583.16;342455;28;1030;-66
2022/01/21 00:04:46;;;;;;;382.17;96.65;;;;;;;0.61;69.39;99584.88;342278;28;1276;-66
2022/01/21 00:04:57;;;;;;;384.17;97.37;;;;;;;0.65;69.88;99585.72;342400;28;1339;-66
2022/01/21 00:05:08;;;;;;;381.50;98.95;;;;;;;0.70;69.16;99581.44;342731;28;1272;-66
2022/01/21 00:05:20;;;;;;;382.30;98.07;;;;;;;0.72;68.95;99589.16;341085;28;2066;-66
2022/01/21 00:05:31;;;;;;;380.95;97.35;;;;;;;0.76;68.83;99588.28;342468;28;860;-65
2022/01/21 00:05:41;;;;;;;385.35;96.72;;;;;;;0.79;69.08;99594.31;341088;29;916;-65
2022/01/21 00:05:52;;;;;;;390.10;97.20;;;;;;;0.81;68.91;99590.00;341054;29;1719;-65
2022/01/21 00:06:06;;;;;;;386.77;96.67;;;;;;;0.84;68.77;99595.16;341122;29;2137;-66
2022/01/21 00:06:16;;;;;;;378.05;94.47;;;;;;;0.86;68.63;99590.00;338607;29;977;-66
2022/01/21 00:06:27;;;;;;;375.58;94.40;;;;;;;0.88;68.21;99588.25;342492;28;1732;-66
2022/01/21 00:06:38;;;;;;;381.47;97.33;;;;;;;0.90;68.65;99591.66;342094;28;2049;-66
2022/01/21 00:06:48;;;;;;;380.02;94.35;;;;;;;0.91;68.24;99596.81;342214;28;1210;-66
2022/01/21 00:06:59;;;;;;;379.60;95.37;;;;;;;0.92;68.59;99593.38;342470;28;868;-66
2022/01/21 00:07:09;;;;;;;374.85;93.28;;;;;;;0.92;68.92;99595.97;343706;28;2198;-66
2022/01/21 00:07:20;;;;;;;375.47;94.80;;;;;;;0.94;68.22;99590.81;340644;28;1353;-66
2022/01/21 00:07:30;;;;;;;374.75;94.40;;;;;;;0.95;68.52;99595.97;342484;28;1079;-66
2022/01/21 00:07:40;;;;;;;373.90;93.00;;;;;;;0.95;68.16;99600.25;343501;28;857;-66
2022/01/21 00:07:51;;;;;;;374.07;92.13;;;;;;;0.95;68.17;99601.09;344724;28;1806;-66
2022/01/21 00:08:01;;;;;;;373.15;90.53;;;;;;;0.95;68.66;99595.09;341124;29;913;-66
2022/01/21 00:08:12;;;;;;;375.87;92.27;;;;;;;0.95;67.83;99595.97;340936;29;2044;-66
2022/01/21 00:08:22;;;;;;;376.00;92.77;;;;;;;0.95;68.19;99595.97;340057;29;1871;-66
2022/01/21 00:08:34;;;;;;;375.10;92.80;;;;;;;0.94;68.12;99599.38;341028;29;901;-66
2022/01/21 00:08:45;;;;;;;374.17;92.82;;;;;;;0.95;68.00;99600.25;338482;29;1356;-66
2022/01/21 00:08:55;;;;;;;373.15;92.28;;;;;;;0.93;68.60;99592.53;343345;28;2095;-66
2022/01/21 00:09:06;;;;;;;372.10;92.53;;;;;;;0.95;68.99;99601.09;343817;28;1884;-66
2022/01/21 00:09:17;;;;;;;373.65;93.35;;;;;;;0.96;68.70;99602.81;343770;28;1028;-66
2022/01/21 00:09:27;;;;;;;374.67;92.55;;;;;;;0.97;68.20;99601.09;343627;28;1304;-66
2022/01/21 00:09:37;;;;;;;373.33;90.93;;;;;;;0.97;67.85;99596.81;340242;29;1285;-66
2022/01/21 00:09:49;;;;;;;374.00;92.65;;;;;;;1.02;67.72;99601.09;337135;29;1419;-66
2022/01/21 00:09:59;;;;;;;374.63;94.70;;;;;;;1.01;68.09;99602.81;337355;29;1065;-66
2022/01/21 00:10:09;;;;;;;374.53;94.83;;;;;;;1.03;67.55;99602.81;338353;29;1996;-66
2022/01/21 00:10:20;;;;;;;376.50;92.85;;;;;;;1.04;68.05;99599.38;339741;29;1567;-66
2022/01/21 00:10:30;;;;;;;376.43;92.67;;;;;;;1.04;67.57;99599.38;339785;29;797;-66
2022/01/21 00:10:41;;;;;;;374.25;92.82;;;;;;;1.04;68.43;99599.38;341779;28;1852;-66
2022/01/21 00:10:51;;;;;;;372.73;93.07;;;;;;;1.03;67.94;99606.25;342328;28;2162;-66
2022/01/21 00:11:02;;;;;;;375.02;92.85;;;;;;;1.04;67.98;99609.69;342500;28;944;-66
2022/01/21 00:11:13;;;;;;;375.37;91.83;;;;;;;1.03;68.03;99600.22;339576;29;2006;-66
2022/01/21 00:11:24;;;;;;;376.35;92.00;;;;;;;1.02;67.91;99603.66;342293;28;1236;-66
2022/01/21 00:11:36;;;;;;;373.27;93.25;;;;;;;0.96;68.25;99607.13;341110;29;1005;-66
2022/01/21 00:11:46;;;;;;;374.02;93.43;;;;;;;0.94;67.95;99599.38;340813;29;2774;-66
2022/01/21 00:11:57;;;;;;;375.37;94.13;;;;;;;0.94;67.59;99598.53;341060;29;1998;-66
2022/01/21 00:12:07;;;;;;;378.63;94.77;;;;;;;0.94;68.32;99599.38;338846;28;1407;-66
2022/01/21 00:12:18;;;;;;;378.83;97.00;;;;;;;0.93;67.78;99602.84;342444;28;883;-66
2022/01/21 00:12:30;;;;;;;376.47;96.27;;;;;;;0.95;67.97;99601.09;342464;28;836;-66
2022/01/21 00:12:41;;;;;;;379.02;97.18;;;;;;;0.94;68.34;99599.38;341783;28;1471;-66
2022/01/21 00:12:53;;;;;;;384.03;96.47;;;;;;;0.95;67.86;99600.25;341436;28;1578;-66
2022/01/21 00:13:13;;;;;;;383.67;94.57;;;;;;;0.94;68.15;99603.69;342757;28;959;-65
2022/01/21 00:13:36;;;;;;;380.88;96.35;;;;;;;0.94;68.69;99596.81;341094;29;1597;-66
2022/01/21 00:13:47;;;;;;;379.45;95.60;;;;;;;0.95;68.14;99605.41;341308;29;1102;-66
2022/01/21 00:13:58;;;;;;;381.30;96.72;;;;;;;0.94;68.56;99601.09;339820;29;1313;-66
2022/01/21 00:14:10;;;;;;;380.83;97.18;;;;;;;0.94;68.32;99599.38;341154;28;1969;-66
2022/01/21 00:14:20;;;;;;;379.35;96.50;;;;;;;0.95;68.96;99602.81;342552;28;1545;-66
2022/01/21 00:14:31;;;;;;;379.47;96.43;;;;;;;0.94;68.20;99604.53;344080;28;967;-66
2022/01/21 00:14:43;;;;;;;380.38;97.22;;;;;;;0.91;67.90;99596.81;343976;28;1730;-66
2022/01/21 00:14:53;;;;;;;381.54;98.68;;;;;;;0.94;68.55;99601.97;341266;29;954;-66
2022/01/21 00:15:05;;;;;;;385.77;98.30;;;;;;;0.95;68.54;99602.81;343952;28;1624;-66
2022/01/21 00:15:15;;;;;;;387.10;97.25;;;;;;;0.95;68.77;99606.25;342648;28;993;-67
2022/01/21 00:15:26;;;;;;;387.60;97.43;;;;;;;0.94;68.42;99609.69;340640;28;1867;-66
2022/01/21 00:15:36;;;;;;;386.77;97.68;;;;;;;0.95;68.51;99608.84;341531;28;1740;-66
2022/01/21 00:15:47;;;;;;;385.70;98.90;;;;;;;0.95;67.99;99610.56;341331;29;882;-66
2022/01/21 00:15:57;;;;;;;385.65;96.60;;;;;;;0.97;68.37;99606.25;342608;28;937;-66
2022/01/21 00:16:12;;;;;;;388.03;97.13;;;;;;;0.97;68.53;99609.69;342471;28;1510;-66
2022/01/21 00:16:24;;;;;;;385.10;96.72;;;;;;;0.96;68.15;99610.56;345234;28;1323;-66
2022/01/21 00:16:35;;;;;;;383.08;96.50;;;;;;;0.95;68.32;99611.41;342779;28;972;-66
2022/01/21 00:16:45;;;;;;;381.80;97.28;;;;;;;0.96;68.53;99607.13;341294;28;1157;-66
2022/01/21 00:16:55;;;;;;;384.92;98.00;;;;;;;0.93;68.43;99604.53;343063;28;1734;-67
2022/01/21 00:17:06;;;;;;;386.57;98.63;;;;;;;0.93;67.98;99607.97;342561;28;2080;-66
2022/01/21 00:17:18;;;;;;;386.47;97.43;;;;;;;0.93;68.15;99607.97;345383;28;931;-66
2022/01/21 00:17:28;;;;;;;386.98;96.93;;;;;;;0.94;68.43;99612.28;342883;28;877;-66
2022/01/21 00:17:39;;;;;;;389.50;96.83;;;;;;;0.96;68.52;99607.13;342600;28;1295;-66
2022/01/21 00:17:49;;;;;;;387.70;97.28;;;;;;;0.94;68.55;99609.69;339973;29;1364;-66
2022/01/21 00:18:00;;;;;;;389.10;97.53;;;;;;;0.98;68.50;99608.81;340019;29;1762;-66
2022/01/21 00:18:12;;;;;;;385.65;98.10;;;;;;;0.98;68.94;99608.81;339955;29;1947;-66
2022/01/21 00:18:22;;;;;;;389.20;97.55;;;;;;;0.97;68.31;99598.53;341161;28;1733;-66
2022/01/21 00:18:34;;;;;;;389.57;97.50;;;;;;;0.99;68.42;99602.81;342725;28;1034;-66
2022/01/21 00:18:55;;;;;;;390.80;98.85;;;;;;;0.98;68.38;99613.97;342197;28;1542;-66
2022/01/21 00:19:10;;;;;;;387.15;99.40;;;;;;;0.99;68.29;99607.97;341413;29;872;-66
2022/01/21 00:19:23;;;;;;;388.88;98.57;;;;;;;0.99;68.38;99613.13;338549;29;1627;-66
2022/01/21 00:19:38;;;;;;;386.27;97.72;;;;;;;1.02;68.33;99611.41;341323;29;1458;-66
2022/01/21 00:30:04;;;;;;;390.17;99.18;;;;;;;1.00;67.82;99606.25;342034;28;1415;-66
2022/01/21 00:30:18;;;;;;;393.60;101.53;;;;;;;0.91;68.05;99596.81;339889;29;1633;-66
2022/01/21 00:30:28;;;;;;;397.38;105.18;;;;;;;0.91;69.12;99603.69;338456;29;2081;-66
2022/01/21 00:30:38;;;;;;;392.20;104.10;;;;;;;0.90;68.70;99601.97;339945;29;1502;-66
2022/01/21 00:30:49;;;;;;;390.02;103.28;;;;;;;0.91;68.27;99599.41;340562;29;1396;-66
2022/01/21 00:30:59;;;;;;;392.13;103.00;;;;;;;0.91;68.80;99604.56;339855;29;972;-66
2022/01/21 00:31:10;;;;;;;391.37;104.83;;;;;;;0.91;68.92;99604.56;340064;28;1895;-65
2022/01/21 00:31:20;;;;;;;394.60;105.63;;;;;;;0.91;68.28;99599.41;343943;28;1303;-66
2022/01/21 00:31:31;;;;;;;396.57;105.87;;;;;;;0.92;68.83;99600.25;343925;28;1927;-65
2022/01/21 00:31:41;;;;;;;401.55;105.05;;;;;;;0.92;68.18;99606.25;344638;28;2039;-65
2022/01/21 00:31:52;;;;;;;401.80;104.93;;;;;;;0.93;68.46;99602.84;341347;28;2142;-65
2022/01/21 00:32:03;;;;;;;397.87;104.33;;;;;;;0.93;68.36;99599.41;341349;29;854;-65
2022/01/21 00:32:13;;;;;;;396.85;102.88;;;;;;;0.93;68.26;99602.84;340918;29;1537;-65
2022/01/21 00:32:24;;;;;;;397.33;103.07;;;;;;;0.94;68.12;99604.53;342619;28;2138;-65
2022/01/21 00:32:34;;;;;;;402.40;101.57;;;;;;;0.96;68.57;99599.38;342654;28;911;-65
2022/01/21 00:32:45;;;;;;;400.97;101.90;;;;;;;0.97;68.12;99601.97;341195;28;2044;-65
2022/01/21 00:32:56;;;;;;;397.80;102.10;;;;;;;0.98;68.78;99607.97;343179;28;1312;-65
2022/01/21 00:33:06;;;;;;;398.77;102.90;;;;;;;0.96;68.57;99602.81;341326;28;2023;-65
2022/01/21 00:33:17;;;;;;;400.63;101.43;;;;;;;0.96;68.90;99607.13;342588;28;1491;-65
2022/01/21 00:33:27;;;;;;;397.27;101.67;;;;;;;0.95;68.70;99601.09;343364;28;2168;-65
2022/01/21 00:33:37;;;;;;;397.45;102.53;;;;;;;0.95;68.16;99601.09;341405;28;1748;-65
2022/01/21 00:33:48;;;;;;;397.47;104.17;;;;;;;0.94;68.69;99604.53;342542;28;1550;-65
2022/01/21 00:33:58;;;;;;;400.80;102.70;;;;;;;0.94;68.35;99601.09;341257;29;1024;-65
2022/01/21 00:34:09;;;;;;;399.60;102.40;;;;;;;0.95;68.74;99606.25;342429;28;1363;-65
2022/01/21 00:34:19;;;;;;;397.98;102.90;;;;;;;0.95;68.31;99605.41;344004;28;1690;-65
2022/01/21 00:34:29;;;;;;;395.10;102.97;;;;;;;0.97;68.14;99603.69;339902;29;2077;-65
2022/01/21 00:34:40;;;;;;;396.90;101.40;;;;;;;0.97;68.51;99599.38;339972;29;1664;-65
2022/01/21 00:34:50;;;;;;;397.33;101.73;;;;;;;0.98;68.50;99603.69;340025;29;972;-66
2022/01/21 00:35:01;;;;;;;399.80;101.70;;;;;;;0.99;68.07;99597.66;339971;29;2154;-65
2022/01/21 00:35:11;;;;;;;398.38;102.43;;;;;;;0.99;68.38;99596.81;339990;29;1874;-65
2022/01/21 00:35:22;;;;;;;399.98;101.88;;;;;;;0.98;68.40;99601.09;341221;29;1489;-65
2022/01/21 00:35:32;;;;;;;401.50;103.23;;;;;;;0.98;68.35;99595.94;341353;29;948;-65
2022/01/21 00:35:43;;;;;;;407.40;103.37;;;;;;;1.00;68.00;99598.53;341913;28;1859;-65
2022/01/21 00:35:53;;;;;;;402.23;102.30;;;;;;;0.99;68.05;99592.50;339822;29;1782;-65
2022/01/21 00:36:05;;;;;;;405.45;102.85;;;;;;;0.98;67.86;99593.38;342602;28;929;-65
2022/01/21 00:36:15;;;;;;;401.05;103.50;;;;;;;0.99;67.84;99592.50;340984;29;1259;-65
2022/01/21 00:36:26;;;;;;;401.37;102.50;;;;;;;1.00;68.43;99601.09;342515;28;1180;-65
2022/01/21 00:36:36;;;;;;;397.15;100.60;;;;;;;0.99;68.17;99597.66;344032;28;1569;-65
2022/01/21 00:36:47;;;;;;;396.93;102.50;;;;;;;0.98;68.43;99595.94;341175;29;1846;-65
2022/01/21 00:36:57;;;;;;;397.13;104.47;;;;;;;0.97;68.31;99589.09;339793;29;2146;-65
2022/01/21 00:37:08;;;;;;;396.15;104.68;;;;;;;0.97;68.61;99594.22;342187;28;1959;-65
2022/01/21 00:37:18;;;;;;;397.30;104.13;;;;;;;0.99;68.53;99595.09;342725;28;893;-65
2022/01/21 00:37:29;;;;;;;400.60;103.63;;;;;;;1.00;68.56;99593.38;342965;28;1700;-65
2022/01/21 00:37:39;;;;;;;401.23;103.60;;;;;;;0.98;68.35;99590.78;341326;28;2004;-65
2022/01/21 00:37:50;;;;;;;401.38;102.68;;;;;;;0.97;68.27;99583.94;339939;28;1272;-65
2022/01/21 00:38:00;;;;;;;396.13;104.15;;;;;;;0.98;68.05;99580.50;342111;28;2244;-65
2022/01/21 00:38:13;;;;;;;397.77;104.77;;;;;;;0.99;68.08;99584.78;343495;28;1784;-65
2022/01/21 00:38:25;;;;;;;395.90;103.57;;;;;;;0.97;68.64;99583.94;342629;28;2014;-65
2022/01/21 00:38:36;;;;;;;396.67;101.00;;;;;;;1.00;67.87;99586.50;342674;28;853;-64
2022/01/21 00:38:46;;;;;;;393.95;100.50;;;;;;;1.02;67.99;99583.91;342555;28;1359;-65
2022/01/21 00:38:57;;;;;;;395.83;103.50;;;;;;;1.02;68.57;99585.63;341264;28;2052;-65
2022/01/21 00:39:07;;;;;;;396.40;104.32;;;;;;;1.02;67.74;99585.63;341342;29;952;-65
2022/01/21 00:39:22;;;;;;;397.70;105.05;;;;;;;1.02;68.43;99585.63;338659;28;1365;-65
2022/01/21 00:39:34;;;;;;;400.25;103.75;;;;;;;1.00;67.93;99589.06;342490;28;948;-65
2022/01/21 00:39:51;;;;;;;396.27;102.35;;;;;;;1.00;68.42;99586.50;342037;28;1977;-65
2022/01/21 00:40:02;;;;;;;395.38;103.13;;;;;;;1.02;68.23;99585.63;341168;28;886;-65
2022/01/21 00:40:17;;;;;;;396.27;102.18;;;;;;;1.04;68.79;99586.50;343204;28;1639;-65
2022/01/21 00:40:29;;;;;;;395.28;100.78;;;;;;;1.04;67.95;99587.34;341769;28;4945;-65
2022/01/21 00:40:39;;;;;;;399.63;102.88;;;;;;;1.04;68.50;99579.63;338844;29;866;-65
2022/01/21 00:40:50;;;;;;;401.37;103.67;;;;;;;1.05;68.49;99586.50;339982;29;951;-65
2022/01/21 00:41:04;;;;;;;400.63;102.17;;;;;;;1.05;68.19;99591.63;339225;29;2121;-65
2022/01/21 00:41:20;;;;;;;394.67;104.22;;;;;;;1.05;68.68;99578.75;341295;29;1898;-65
2022/01/21 00:41:34;;;;;;;394.05;106.00;;;;;;;1.07;68.34;99581.31;342966;28;2263;-65
2022/01/21 00:41:56;;;;;;;393.67;105.20;;;;;;;1.05;68.10;99578.75;341639;28;1778;-65
2022/01/21 00:42:44;;;;;;;402.30;106.82;;;;;;;1.06;68.28;99583.03;340985;29;1357;-65
2022/01/21 00:43:21;;;;;;;398.77;104.87;;;;;;;1.04;68.64;99581.34;342701;28;924;-65
2022/01/21 00:43:32;;;;;;;390.75;100.03;;;;;;;1.03;68.54;99579.63;342449;28;1310;-65
2022/01/21 00:43:44;;;;;;;394.50;101.65;;;;;;;1.03;68.50;99577.03;338379;29;1580;-65
2022/01/21 00:43:54;;;;;;;399.48;104.40;;;;;;;1.04;68.67;99579.63;341293;28;942;-64
2022/01/21 00:44:04;;;;;;;401.17;106.07;;;;;;;1.03;68.14;99577.03;341117;28;1334;-64
2022/01/21 00:44:15;;;;;;;401.70;104.70;;;;;;;1.00;67.95;99568.47;342515;28;1985;-64
2022/01/21 00:44:25;;;;;;;399.48;103.43;;;;;;;0.99;68.76;99571.91;342643;28;1790;-64
2022/01/21 00:44:36;;;;;;;397.27;102.93;;;;;;;0.99;68.30;99577.06;341379;29;919;-64
2022/01/21 00:44:46;;;;;;;394.67;102.93;;;;;;;1.00;68.54;99577.91;341157;29;1684;-64
2022/01/21 00:44:59;;;;;;;395.57;102.80;;;;;;;0.98;68.78;99567.59;341230;29;1873;-65
2022/01/21 00:45:16;;;;;;;396.35;102.47;;;;;;;0.99;69.21;99576.19;342535;28;1209;-65
2022/01/21 00:45:26;;;;;;;398.48;103.72;;;;;;;0.95;68.34;99570.19;342557;28;1930;-65
2022/01/21 00:45:36;;;;;;;401.23;103.90;;;;;;;0.94;68.77;99573.63;341228;28;1229;-65
2022/01/21 00:45:48;;;;;;;402.02;103.72;;;;;;;0.93;68.46;99571.91;342233;28;1404;-65
2022/01/21 00:45:59;;;;;;;400.52;103.72;;;;;;;0.94;69.29;99580.50;341059;29;2001;-65
2022/01/21 00:46:11;;;;;;;396.63;104.28;;;;;;;0.93;68.63;99577.06;339836;29;2248;-65
2022/01/21 00:46:21;;;;;;;393.60;104.50;;;;;;;0.91;68.40;99576.22;341441;29;933;-65
2022/01/21 00:46:32;;;;;;;392.90;104.47;;;;;;;0.90;68.70;99581.38;341223;29;1838;-65
2022/01/21 00:46:42;;;;;;;396.73;104.95;;;;;;;0.91;68.64;99580.50;341173;29;1754;-65
2022/01/21 00:46:53;;;;;;;400.27;106.77;;;;;;;0.90;68.42;99577.06;341331;29;835;-65
2022/01/21 00:47:03;;;;;;;397.88;104.80;;;;;;;0.89;69.03;99575.34;341193;29;2018;-65
2022/01/21 00:47:14;;;;;;;394.60;105.13;;;;;;;0.89;68.59;99577.06;339831;29;1719;-65
2022/01/21 00:47:24;;;;;;;393.07;104.00;;;;;;;0.89;69.07;99572.78;339898;29;853;-65
2022/01/21 00:47:35;;;;;;;395.02;106.22;;;;;;;0.89;68.91;99575.34;339952;29;2089;-65
2022/01/21 00:47:45;;;;;;;395.37;106.30;;;;;;;0.90;68.61;99577.06;339809;29;2066;-65
2022/01/21 00:47:55;;;;;;;393.70;104.55;;;;;;;0.90;69.13;99577.06;341535;28;2152;-65
2022/01/21 00:48:06;;;;;;;395.87;103.47;;;;;;;0.92;69.28;99579.66;339979;29;957;-65
2022/01/21 00:48:16;;;;;;;397.40;103.63;;;;;;;0.93;69.21;99577.06;342072;28;2089;-65
2022/01/21 00:48:27;;;;;;;405.48;106.13;;;;;;;0.94;68.86;99583.94;342507;28;2016;-65
2022/01/21 00:48:37;;;;;;;406.10;106.80;;;;;;;0.92;69.17;99572.78;341338;29;1550;-65
2022/01/21 00:48:48;;;;;;;411.38;108.07;;;;;;;0.93;69.41;99578.78;341324;28;1934;-65
2022/01/21 00:48:58;;;;;;;413.25;109.45;;;;;;;0.89;69.03;99575.34;341205;29;872;-65
2022/01/21 00:49:08;;;;;;;423.10;112.67;;;;;;;0.89;68.70;99579.66;341211;29;1316;-65
2022/01/21 00:49:19;;;;;;;424.45;114.75;;;;;;;0.88;69.48;99578.78;341301;29;1879;-65
2022/01/21 00:49:29;;;;;;;425.73;116.30;;;;;;;0.86;68.89;99571.97;342539;28;1916;-66
2022/01/21 00:49:39;;;;;;;427.03;117.00;;;;;;;0.89;68.47;99570.22;342688;28;866;-65
2022/01/21 00:49:50;;;;;;;425.25;114.88;;;;;;;0.88;69.41;99573.66;341302;28;1789;-65
2022/01/21 00:50:00;;;;;;;421.37;113.50;;;;;;;0.87;68.70;99574.50;344530;28;1531;-65
2022/01/21 00:50:11;;;;;;;414.33;110.13;;;;;;;0.87;68.70;99577.09;342396;28;1769;-65
2022/01/21 00:50:22;;;;;;;415.63;111.35;;;;;;;0.86;69.31;99577.13;340697;29;1303;-65
2022/01/21 00:50:32;;;;;;;415.30;110.53;;;;;;;0.84;69.11;99573.69;341932;28;1691;-65
2022/01/21 00:50:43;;;;;;;414.50;110.33;;;;;;;0.82;69.17;99576.25;342357;28;1840;-65
2022/01/21 00:50:53;;;;;;;414.20;110.28;;;;;;;0.81;69.55;99577.13;341347;29;857;-65
2022/01/21 00:51:04;;;;;;;415.93;109.33;;;;;;;0.80;69.56;99575.41;340043;29;1357;-65
2022/01/21 00:51:14;;;;;;;416.27;108.75;;;;;;;0.83;69.42;99577.13;342559;28;1880;-65
2022/01/21 00:51:24;;;;;;;410.97;107.83;;;;;;;0.83;69.94;99575.41;341347;29;905;-65
2022/01/21 00:51:35;;;;;;;409.08;106.70;;;;;;;0.83;70.07;99572.81;342607;28;1692;-65
2022/01/21 00:51:46;;;;;;;402.17;106.43;;;;;;;0.84;69.57;99579.69;342478;28;1587;-65
2022/01/21 00:51:57;;;;;;;398.95;104.03;;;;;;;0.83;69.71;99570.25;342560;28;2051;-65
2022/01/21 00:52:07;;;;;;;400.30;104.50;;;;;;;0.83;69.83;99575.41;342340;28;1832;-65
2022/01/21 00:52:18;;;;;;;400.95;103.95;;;;;;;0.83;70.24;99575.41;338663;29;1540;-65
2022/01/21 00:52:28;;;;;;;399.17;102.40;;;;;;;0.84;69.77;99577.13;338609;29;2256;-65
2022/01/21 00:52:38;;;;;;;394.15;100.15;;;;;;;0.86;69.60;99579.69;338753;29;851;-65
2022/01/21 00:52:49;;;;;;;396.83;100.30;;;;;;;0.85;69.55;99576.25;339820;29;2051;-65
2022/01/21 00:52:59;;;;;;;399.30;101.13;;;;;;;0.84;69.62;99576.25;342506;28;1821;-65
2022/01/21 00:53:09;;;;;;;400.77;102.43;;;;;;;0.85;69.55;99571.09;342608;28;1382;-65
2022/01/21 00:53:20;;;;;;;401.10;101.63;;;;;;;0.85;69.76;99571.09;340879;29;2029;-65
2022/01/21 00:53:30;;;;;;;397.53;102.77;;;;;;;0.86;70.06;99572.81;339623;29;1794;-64
2022/01/21 00:53:41;;;;;;;393.60;102.70;;;;;;;0.85;70.17;99565.09;339996;29;1246;-64
2022/01/21 00:53:51;;;;;;;390.17;103.30;;;;;;;0.85;69.34;99572.81;340192;29;1109;-64
2022/01/21 00:54:02;;;;;;;392.97;103.40;;;;;;;0.85;69.77;99568.53;339058;29;1987;-65
2022/01/21 00:54:12;;;;;;;392.80;102.37;;;;;;;0.85;69.37;99570.25;342292;28;1547;-65
2022/01/21 00:54:23;;;;;;;394.10;101.78;;;;;;;0.87;68.99;99571.06;342680;28;881;-65
2022/01/21 00:54:33;;;;;;;390.40;100.83;;;;;;;0.86;69.40;99570.25;342533;28;2007;-66
2022/01/21 00:54:43;;;;;;;389.80;99.88;;;;;;;0.87;69.39;99565.91;342536;28;1105;-66
2022/01/21 00:54:54;;;;;;;392.20;100.07;;;;;;;0.87;69.63;99560.78;341284;29;949;-66
2022/01/21 00:55:05;;;;;;;395.23;98.57;;;;;;;0.86;69.76;99569.38;341253;29;2289;-66
2022/01/21 00:55:15;;;;;;;394.98;99.18;;;;;;;0.85;69.64;99563.38;339918;29;2066;-66
2022/01/21 00:55:25;;;;;;;388.97;97.67;;;;;;;0.86;69.42;99569.38;339984;29;1540;-66
2022/01/21 00:55:36;;;;;;;385.48;98.80;;;;;;;0.83;69.43;99562.53;341022;28;1259;-66
2022/01/21 00:55:46;;;;;;;382.83;96.70;;;;;;;0.85;70.28;99558.22;342545;28;1807;-66
2022/01/21 00:55:57;;;;;;;384.98;98.70;;;;;;;0.85;70.19;99558.22;341370;29;874;-66
2022/01/21 00:56:07;;;;;;;386.27;101.00;;;;;;;0.84;69.44;99566.81;342299;28;1773;-66
2022/01/21 00:56:18;;;;;;;387.83;101.63;;;;;;;0.84;69.83;99559.09;341201;29;1589;-66
2022/01/21 00:56:28;;;;;;;386.93;101.00;;;;;;;0.84;70.27;99555.66;341304;29;1607;-66
2022/01/21 00:56:38;;;;;;;387.08;99.75;;;;;;;0.83;70.13;99564.25;341306;29;1048;-66
2022/01/21 00:56:49;;;;;;;388.33;100.97;;;;;;;0.86;70.70;99567.66;341243;29;2383;-66
2022/01/21 00:56:59;;;;;;;388.45;99.55;;;;;;;0.88;70.69;99563.34;338473;29;1625;-66
2022/01/21 00:57:09;;;;;;;392.07;99.90;;;;;;;0.88;70.13;99563.34;338709;29;913;-66
2022/01/21 00:57:20;;;;;;;392.73;99.43;;;;;;;0.89;69.98;99562.47;339915;29;964;-66
2022/01/21 00:57:30;;;;;;;390.47;99.60;;;;;;;0.89;69.63;99562.47;341624;28;1165;-66
2022/01/21 00:57:40;;;;;;;388.50;99.33;;;;;;;0.89;70.36;99565.06;341290;29;837;-66
2022/01/21 00:57:51;;;;;;;390.77;100.75;;;;;;;0.89;69.92;99562.47;342561;28;1211;-66
2022/01/21 00:58:01;;;;;;;394.10;102.43;;;;;;;0.87;70.50;99560.78;341225;29;1800;-66
2022/01/21 00:58:12;;;;;;;392.27;103.00;;;;;;;0.88;69.75;99565.06;339921;29;958;-65
2022/01/21 00:58:22;;;;;;;390.43;101.77;;;;;;;0.89;69.85;99569.34;339681;29;1496;-65
2022/01/21 00:58:32;;;;;;;385.88;99.25;;;;;;;0.88;69.67;99563.34;340527;29;1571;-65
2022/01/21 00:58:43;;;;;;;387.47;100.03;;;;;;;0.88;69.87;99572.78;339229;29;1647;-65
2022/01/21 00:58:53;;;;;;;388.27;100.05;;;;;;;0.86;69.51;99572.81;341237;29;1205;-65
2022/01/21 00:59:04;;;;;;;388.93;100.17;;;;;;;0.86;69.68;99574.53;342496;28;1790;-65
2022/01/21 00:59:14;;;;;;;392.63;100.03;;;;;;;0.85;69.79;99568.53;342638;28;1847;-65
2022/01/21 00:59:24;;;;;;;391.97;100.30;;;;;;;0.85;70.00;99573.69;342672;28;880;-66
2022/01/21 00:59:35;;;;;;;394.53;102.03;;;;;;;0.85;70.36;99571.09;341318;29;870;-66
2022/01/21 00:59:46;;;;;;;390.52;101.97;;;;;;;0.85;69.55;99571.09;342542;28;1906;-66
2022/01/21 00:59:56;;;;;;;389.73;101.00;;;;;;;0.84;69.92;99569.41;342687;28;886;-66
2022/01/21 01:00:08;;;;;;;388.83;100.17;;;;;;;0.82;69.59;99567.69;341345;28;1147;-66
2022/01/21 01:00:19;;;;;;;386.10;97.70;;;;;;;0.82;69.98;99567.69;341920;28;2061;-66
2022/01/21 01:00:29;;;;;;;386.20;97.40;;;;;;;0.80;70.15;99567.69;341268;29;2086;-66
2022/01/21 01:00:40;;;;;;;385.52;97.10;;;;;;;0.80;70.06;99569.41;341320;29;1307;-66
2022/01/21 01:00:50;;;;;;;387.57;99.00;;;;;;;0.82;70.62;99567.69;342452;28;2038;-66
2022/01/21 01:01:00;;;;;;;390.38;100.40;;;;;;;0.82;69.29;99563.38;342263;28;1265;-66
2022/01/21 01:01:12;;;;;;;393.50;101.93;;;;;;;0.82;70.15;99565.97;342644;28;1230;-66
2022/01/21 01:01:22;;;;;;;393.30;100.82;;;;;;;0.82;70.37;99562.53;341246;28;2213;-66
2022/01/21 01:01:32;;;;;;;392.10;100.17;;;;;;;0.81;69.89;99559.09;342509;28;1761;-66
2022/01/21 01:01:43;;;;;;;389.27;99.10;;;;;;;0.83;69.96;99564.25;341259;29;1765;-66
2022/01/21 01:01:53;;;;;;;390.93;101.47;;;;;;;0.81;70.16;99561.66;342634;28;1134;-66
2022/01/21 01:02:04;;;;;;;387.77;100.47;;;;;;;0.81;69.58;99560.81;342325;28;1622;-66
2022/01/21 01:02:14;;;;;;;388.30;100.73;;;;;;;0.82;69.55;99554.81;341186;29;1695;-66
2022/01/21 01:02:25;;;;;;;384.08;99.75;;;;;;;0.83;69.37;99549.66;339998;29;980;-66
2022/01/21 01:02:35;;;;;;;386.10;100.23;;;;;;;0.82;69.90;99555.66;339602;29;945;-66
2022/01/21 01:02:46;;;;;;;385.95;98.95;;;;;;;0.80;69.78;99559.97;342442;28;1833;-66